Mulberry, Tennessee
Current Conditions -  °F | °C
As of 7:55 AM on Friday 31 Oct 2014 (Local Time) from KFYM Reporting Station
Scattered Clouds Scattered Clouds  
Wind Chill: 37°   Ceiling: Unl
Heat Index: 45°   Visibility: 10mi
Dew Point: 39°   Wind: 17mph
Humidity: 81%   Direction: 330°NNW
Pressure: 29.99"   Gusts: 122mph
Location:  35.21°N, 86.46°W
Report Text: KFYM 311255Z AUTO 33015G106KT 10SM FEW075 SCT100 07/04 A2999 RMK
Loading
Personal Weather Stations






























Interactive Weather Map
Tropical Storm Tracking
New forecast layout! Learn more

10-Day Weather Forecast

Advertisements
Track Severe Weather on mobile